sensor_id;sensor_type;location;lat;lon;timestamp;P1;durP1;ratioP1;P2;durP2;ratioP2
22768;SDS011;13001;51.968;5.918;2023-06-05T00:02:21;536.90;;;499.13;;
22768;SDS011;13001;51.968;5.918;2023-06-05T00:04:48;509.70;;;473.77;;
22768;SDS011;13001;51.968;5.918;2023-06-05T00:07:16;495.97;;;461.03;;
22768;SDS011;13001;51.968;5.918;2023-06-05T00:09:44;466.10;;;433.93;;
22768;SDS011;13001;51.968;5.918;2023-06-05T00:12:11;490.73;;;455.93;;
22768;SDS011;13001;51.968;5.918;2023-06-05T00:14:38;452.83;;;421.63;;
22768;SDS011;13001;51.968;5.918;2023-06-05T00:17:06;421.37;;;392.07;;
22768;SDS011;13001;51.968;5.918;2023-06-05T00:19:33;424.03;;;394.53;;
22768;SDS011;13001;51.968;5.918;2023-06-05T00:22:00;410.63;;;382.53;;
22768;SDS011;13001;51.968;5.918;2023-06-05T00:24:28;410.87;;;382.87;;
22768;SDS011;13001;51.968;5.918;2023-06-05T00:26:55;428.70;;;399.20;;
22768;SDS011;13001;51.968;5.918;2023-06-05T00:29:22;386.27;;;360.43;;
22768;SDS011;13001;51.968;5.918;2023-06-05T00:31:50;377.70;;;352.07;;
22768;SDS011;13001;51.968;5.918;2023-06-05T00:34:17;369.37;;;345.10;;
22768;SDS011;13001;51.968;5.918;2023-06-05T00:36:46;354.63;;;331.60;;
22768;SDS011;13001;51.968;5.918;2023-06-05T00:39:15;346.77;;;324.00;;
22768;SDS011;13001;51.968;5.918;2023-06-05T00:41:42;336.17;;;314.30;;
22768;SDS011;13001;51.968;5.918;2023-06-05T00:44:11;347.70;;;325.03;;
22768;SDS011;13001;51.968;5.918;2023-06-05T00:46:38;349.20;;;326.60;;
22768;SDS011;13001;51.968;5.918;2023-06-05T00:49:06;345.90;;;323.33;;
22768;SDS011;13001;51.968;5.918;2023-06-05T00:51:34;364.07;;;340.40;;
22768;SDS011;13001;51.968;5.918;2023-06-05T00:54:03;342.40;;;320.83;;
22768;SDS011;13001;51.968;5.918;2023-06-05T00:56:31;346.93;;;324.63;;
22768;SDS011;13001;51.968;5.918;2023-06-05T00:59:00;367.23;;;343.90;;
22768;SDS011;13001;51.968;5.918;2023-06-05T01:01:28;363.30;;;340.33;;
22768;SDS011;13001;51.968;5.918;2023-06-05T01:03:56;333.43;;;312.97;;
22768;SDS011;13001;51.968;5.918;2023-06-05T01:06:27;362.63;;;340.17;;
22768;SDS011;13001;51.968;5.918;2023-06-05T01:08:57;363.83;;;341.53;;
22768;SDS011;13001;51.968;5.918;2023-06-05T01:11:43;366.33;;;342.90;;
22768;SDS011;13001;51.968;5.918;2023-06-05T01:14:08;342.70;;;321.17;;
22768;SDS011;13001;51.968;5.918;2023-06-05T01:16:35;360.93;;;338.10;;
22768;SDS011;13001;51.968;5.918;2023-06-05T01:19:03;356.10;;;333.87;;
22768;SDS011;13001;51.968;5.918;2023-06-05T01:21:35;352.70;;;330.73;;
22768;SDS011;13001;51.968;5.918;2023-06-05T01:24:02;369.07;;;345.57;;
22768;SDS011;13001;51.968;5.918;2023-06-05T01:26:39;382.13;;;358.07;;
22768;SDS011;13001;51.968;5.918;2023-06-05T01:29:07;370.83;;;346.90;;
22768;SDS011;13001;51.968;5.918;2023-06-05T01:31:36;362.70;;;339.77;;
22768;SDS011;13001;51.968;5.918;2023-06-05T01:34:07;362.03;;;338.17;;
22768;SDS011;13001;51.968;5.918;2023-06-05T01:36:36;356.03;;;332.50;;
22768;SDS011;13001;51.968;5.918;2023-06-05T01:39:03;372.73;;;348.53;;
22768;SDS011;13001;51.968;5.918;2023-06-05T01:41:32;370.83;;;346.40;;
22768;SDS011;13001;51.968;5.918;2023-06-05T01:43:59;347.90;;;324.87;;
22768;SDS011;13001;51.968;5.918;2023-06-05T01:46:28;359.40;;;335.53;;
22768;SDS011;13001;51.968;5.918;2023-06-05T01:48:55;337.77;;;315.83;;
22768;SDS011;13001;51.968;5.918;2023-06-05T01:51:24;373.37;;;348.93;;
22768;SDS011;13001;51.968;5.918;2023-06-05T01:53:51;393.17;;;366.53;;
22768;SDS011;13001;51.968;5.918;2023-06-05T01:56:19;404.07;;;377.13;;
22768;SDS011;13001;51.968;5.918;2023-06-05T01:58:46;388.33;;;362.27;;
22768;SDS011;13001;51.968;5.918;2023-06-05T02:01:14;337.50;;;315.43;;
22768;SDS011;13001;51.968;5.918;2023-06-05T02:03:42;364.83;;;340.73;;
22768;SDS011;13001;51.968;5.918;2023-06-05T02:06:14;371.10;;;346.47;;
22768;SDS011;13001;51.968;5.918;2023-06-05T02:08:44;364.50;;;340.33;;
22768;SDS011;13001;51.968;5.918;2023-06-05T02:11:12;375.33;;;350.67;;
22768;SDS011;13001;51.968;5.918;2023-06-05T02:13:39;307.43;;;286.90;;
22768;SDS011;13001;51.968;5.918;2023-06-05T02:16:09;303.13;;;282.93;;
22768;SDS011;13001;51.968;5.918;2023-06-05T02:18:35;304.40;;;284.03;;
22768;SDS011;13001;51.968;5.918;2023-06-05T02:21:04;320.30;;;298.80;;
22768;SDS011;13001;51.968;5.918;2023-06-05T02:23:31;369.87;;;345.57;;
22768;SDS011;13001;51.968;5.918;2023-06-05T02:26:00;310.00;;;289.23;;
22768;SDS011;13001;51.968;5.918;2023-06-05T02:28:28;317.10;;;296.10;;
22768;SDS011;13001;51.968;5.918;2023-06-05T02:30:58;357.00;;;333.60;;
22768;SDS011;13001;51.968;5.918;2023-06-05T02:33:25;369.73;;;345.43;;
22768;SDS011;13001;51.968;5.918;2023-06-05T02:35:54;361.83;;;338.13;;
22768;SDS011;13001;51.968;5.918;2023-06-05T02:38:22;379.13;;;354.47;;
22768;SDS011;13001;51.968;5.918;2023-06-05T02:40:49;353.83;;;330.07;;
22768;SDS011;13001;51.968;5.918;2023-06-05T02:43:17;333.77;;;311.87;;
22768;SDS011;13001;51.968;5.918;2023-06-05T02:45:48;339.70;;;317.83;;
22768;SDS011;13001;51.968;5.918;2023-06-05T02:48:16;345.40;;;322.90;;
22768;SDS011;13001;51.968;5.918;2023-06-05T02:50:43;343.07;;;320.90;;
22768;SDS011;13001;51.968;5.918;2023-06-05T02:53:10;330.00;;;308.33;;
22768;SDS011;13001;51.968;5.918;2023-06-05T02:55:38;342.33;;;320.40;;
22768;SDS011;13001;51.968;5.918;2023-06-05T02:58:06;330.37;;;309.07;;
22768;SDS011;13001;51.968;5.918;2023-06-05T03:00:34;335.93;;;314.27;;
22768;SDS011;13001;51.968;5.918;2023-06-05T03:03:01;349.60;;;327.80;;
22768;SDS011;13001;51.968;5.918;2023-06-05T03:05:29;361.43;;;338.20;;
22768;SDS011;13001;51.968;5.918;2023-06-05T03:07:58;365.07;;;341.47;;
22768;SDS011;13001;51.968;5.918;2023-06-05T03:10:27;358.13;;;335.03;;
22768;SDS011;13001;51.968;5.918;2023-06-05T03:12:54;386.73;;;361.30;;
22768;SDS011;13001;51.968;5.918;2023-06-05T03:15:22;385.30;;;360.30;;
22768;SDS011;13001;51.968;5.918;2023-06-05T03:17:50;390.83;;;365.73;;
22768;SDS011;13001;51.968;5.918;2023-06-05T03:20:18;370.93;;;347.30;;
22768;SDS011;13001;51.968;5.918;2023-06-05T03:22:45;414.90;;;387.97;;
22768;SDS011;13001;51.968;5.918;2023-06-05T03:25:12;426.17;;;398.37;;
22768;SDS011;13001;51.968;5.918;2023-06-05T03:27:40;363.77;;;340.30;;
22768;SDS011;13001;51.968;5.918;2023-06-05T03:30:07;389.37;;;363.73;;
22768;SDS011;13001;51.968;5.918;2023-06-05T03:32:36;363.67;;;340.30;;
22768;SDS011;13001;51.968;5.918;2023-06-05T03:35:03;399.13;;;373.23;;
22768;SDS011;13001;51.968;5.918;2023-06-05T03:37:31;351.97;;;329.60;;
22768;SDS011;13001;51.968;5.918;2023-06-05T03:39:59;361.20;;;337.87;;
22768;SDS011;13001;51.968;5.918;2023-06-05T03:42:26;375.43;;;351.30;;
22768;SDS011;13001;51.968;5.918;2023-06-05T03:44:53;412.17;;;384.87;;
22768;SDS011;13001;51.968;5.918;2023-06-05T03:47:22;382.17;;;357.43;;
22768;SDS011;13001;51.968;5.918;2023-06-05T03:49:49;380.10;;;355.43;;
22768;SDS011;13001;51.968;5.918;2023-06-05T03:52:18;418.53;;;391.47;;
22768;SDS011;13001;51.968;5.918;2023-06-05T03:54:47;400.07;;;374.23;;
22768;SDS011;13001;51.968;5.918;2023-06-05T03:57:16;372.60;;;348.37;;
22768;SDS011;13001;51.968;5.918;2023-06-05T03:59:45;323.73;;;302.87;;
22768;SDS011;13001;51.968;5.918;2023-06-05T04:05:00;352.13;;;328.63;;
22768;SDS011;13001;51.968;5.918;2023-06-05T04:07:29;348.37;;;324.97;;
22768;SDS011;13001;51.968;5.918;2023-06-05T04:09:58;337.23;;;315.00;;
22768;SDS011;13001;51.968;5.918;2023-06-05T04:12:25;325.17;;;304.20;;
22768;SDS011;13001;51.968;5.918;2023-06-05T04:14:54;305.77;;;286.97;;
22768;SDS011;13001;51.968;5.918;2023-06-05T04:17:21;394.45;;;366.70;;
22768;SDS011;13001;51.968;5.918;2023-06-05T04:19:49;445.75;;;412.45;;
22768;SDS011;13001;51.968;5.918;2023-06-05T04:22:16;191.40;;;176.47;;
22768;SDS011;13001;51.968;5.918;2023-06-05T04:24:44;215.73;;;199.27;;
22768;SDS011;13001;51.968;5.918;2023-06-05T04:27:11;262.80;;;242.23;;
22768;SDS011;13001;51.968;5.918;2023-06-05T04:29:39;590.80;;;544.35;;
22768;SDS011;13001;51.968;5.918;2023-06-05T04:32:07;621.05;;;571.70;;
22768;SDS011;13001;51.968;5.918;2023-06-05T04:34:35;382.60;;;355.30;;
22768;SDS011;13001;51.968;5.918;2023-06-05T04:37:03;348.90;;;325.43;;
22768;SDS011;13001;51.968;5.918;2023-06-05T04:39:30;362.87;;;338.43;;
22768;SDS011;13001;51.968;5.918;2023-06-05T04:41:58;367.80;;;342.70;;
22768;SDS011;13001;51.968;5.918;2023-06-05T04:44:25;397.60;;;370.07;;
22768;SDS011;13001;51.968;5.918;2023-06-05T04:46:52;341.73;;;318.67;;
22768;SDS011;13001;51.968;5.918;2023-06-05T04:49:22;347.67;;;324.53;;
22768;SDS011;13001;51.968;5.918;2023-06-05T04:51:49;688.67;;;636.73;;
22768;SDS011;13001;51.968;5.918;2023-06-05T04:54:16;750.02;;;692.85;;
22768;SDS011;13001;51.968;5.918;2023-06-05T04:56:44;832.45;;;769.23;;
22768;SDS011;13001;51.968;5.918;2023-06-05T04:59:11;705.87;;;655.35;;
22768;SDS011;13001;51.968;5.918;2023-06-05T05:01:39;667.92;;;623.52;;
22768;SDS011;13001;51.968;5.918;2023-06-05T05:04:07;584.17;;;547.77;;
22768;SDS011;13001;51.968;5.918;2023-06-05T05:06:34;546.90;;;512.55;;
22768;SDS011;13001;51.968;5.918;2023-06-05T05:09:01;507.32;;;476.50;;
22768;SDS011;13001;51.968;5.918;2023-06-05T05:11:30;507.25;;;476.02;;
22768;SDS011;13001;51.968;5.918;2023-06-05T05:13:57;480.03;;;449.88;;
22768;SDS011;13001;51.968;5.918;2023-06-05T05:16:24;469.55;;;440.02;;
22768;SDS011;13001;51.968;5.918;2023-06-05T05:18:52;385.43;;;362.55;;
22768;SDS011;13001;51.968;5.918;2023-06-05T05:21:19;370.82;;;348.62;;
22768;SDS011;13001;51.968;5.918;2023-06-05T05:23:46;367.70;;;345.93;;
22768;SDS011;13001;51.968;5.918;2023-06-05T05:26:13;314.60;;;296.65;;
22768;SDS011;13001;51.968;5.918;2023-06-05T05:28:41;313.18;;;295.48;;
22768;SDS011;13001;51.968;5.918;2023-06-05T05:31:08;304.57;;;287.15;;
22768;SDS011;13001;51.968;5.918;2023-06-05T05:33:36;307.43;;;289.93;;
22768;SDS011;13001;51.968;5.918;2023-06-05T05:36:04;291.57;;;274.98;;
22768;SDS011;13001;51.968;5.918;2023-06-05T05:38:31;286.43;;;269.83;;
22768;SDS011;13001;51.968;5.918;2023-06-05T05:40:58;265.80;;;250.73;;
22768;SDS011;13001;51.968;5.918;2023-06-05T05:43:25;262.33;;;247.47;;
22768;SDS011;13001;51.968;5.918;2023-06-05T05:45:53;238.83;;;224.73;;
22768;SDS011;13001;51.968;5.918;2023-06-05T05:48:20;230.40;;;216.97;;
22768;SDS011;13001;51.968;5.918;2023-06-05T05:50:49;220.95;;;208.47;;
22768;SDS011;13001;51.968;5.918;2023-06-05T05:53:16;240.28;;;226.82;;
22768;SDS011;13001;51.968;5.918;2023-06-05T05:55:43;247.73;;;233.78;;
22768;SDS011;13001;51.968;5.918;2023-06-05T05:58:11;266.35;;;251.20;;
22768;SDS011;13001;51.968;5.918;2023-06-05T06:00:38;277.93;;;262.30;;
22768;SDS011;13001;51.968;5.918;2023-06-05T06:03:05;277.45;;;261.75;;
22768;SDS011;13001;51.968;5.918;2023-06-05T06:05:33;291.88;;;275.15;;
22768;SDS011;13001;51.968;5.918;2023-06-05T06:08:02;315.43;;;297.60;;
22768;SDS011;13001;51.968;5.918;2023-06-05T06:10:30;303.95;;;286.65;;
22768;SDS011;13001;51.968;5.918;2023-06-05T06:12:57;281.30;;;265.40;;
22768;SDS011;13001;51.968;5.918;2023-06-05T06:15:24;252.60;;;238.43;;
22768;SDS011;13001;51.968;5.918;2023-06-05T06:17:53;263.85;;;249.18;;
22768;SDS011;13001;51.968;5.918;2023-06-05T06:20:22;334.55;;;315.75;;
22768;SDS011;13001;51.968;5.918;2023-06-05T06:22:49;312.40;;;294.73;;
22768;SDS011;13001;51.968;5.918;2023-06-05T06:25:17;241.00;;;227.03;;
22768;SDS011;13001;51.968;5.918;2023-06-05T06:27:47;245.65;;;231.63;;
22768;SDS011;13001;51.968;5.918;2023-06-05T06:30:16;271.60;;;256.10;;
22768;SDS011;13001;51.968;5.918;2023-06-05T06:32:43;221.45;;;208.68;;
22768;SDS011;13001;51.968;5.918;2023-06-05T06:35:10;128.17;;;120.63;;
22768;SDS011;13001;51.968;5.918;2023-06-05T06:37:40;117.72;;;110.72;;
22768;SDS011;13001;51.968;5.918;2023-06-05T06:40:07;103.53;;;97.47;;
22768;SDS011;13001;51.968;5.918;2023-06-05T06:42:38;84.55;;;79.65;;
22768;SDS011;13001;51.968;5.918;2023-06-05T06:45:05;89.72;;;84.13;;
22768;SDS011;13001;51.968;5.918;2023-06-05T06:47:32;85.90;;;80.80;;
22768;SDS011;13001;51.968;5.918;2023-06-05T06:50:00;79.27;;;74.53;;
22768;SDS011;13001;51.968;5.918;2023-06-05T06:52:27;42.83;;;40.33;;
22768;SDS011;13001;51.968;5.918;2023-06-05T06:54:55;34.40;;;32.38;;
22768;SDS011;13001;51.968;5.918;2023-06-05T06:57:22;32.70;;;30.60;;
22768;SDS011;13001;51.968;5.918;2023-06-05T06:59:49;33.85;;;31.65;;
22768;SDS011;13001;51.968;5.918;2023-06-05T07:02:18;46.18;;;43.40;;
22768;SDS011;13001;51.968;5.918;2023-06-05T07:04:46;80.77;;;75.87;;
22768;SDS011;13001;51.968;5.918;2023-06-05T07:07:14;105.27;;;99.17;;
22768;SDS011;13001;51.968;5.918;2023-06-05T07:09:43;125.58;;;118.35;;
22768;SDS011;13001;51.968;5.918;2023-06-05T07:12:12;107.47;;;101.17;;
22768;SDS011;13001;51.968;5.918;2023-06-05T07:14:39;125.90;;;118.70;;
22768;SDS011;13001;51.968;5.918;2023-06-05T07:17:07;118.13;;;111.32;;
22768;SDS011;13001;51.968;5.918;2023-06-05T07:19:34;126.85;;;119.50;;
22768;SDS011;13001;51.968;5.918;2023-06-05T07:22:05;132.80;;;125.10;;
22768;SDS011;13001;51.968;5.918;2023-06-05T07:24:33;117.05;;;110.28;;
22768;SDS011;13001;51.968;5.918;2023-06-05T07:27:03;119.83;;;113.03;;
22768;SDS011;13001;51.968;5.918;2023-06-05T07:29:30;134.97;;;127.27;;
22768;SDS011;13001;51.968;5.918;2023-06-05T07:31:58;115.43;;;108.63;;
22768;SDS011;13001;51.968;5.918;2023-06-05T07:34:25;82.53;;;77.90;;
22768;SDS011;13001;51.968;5.918;2023-06-05T07:36:53;51.77;;;48.80;;
22768;SDS011;13001;51.968;5.918;2023-06-05T07:39:22;36.08;;;33.88;;
22768;SDS011;13001;51.968;5.918;2023-06-05T07:41:49;27.95;;;26.15;;
22768;SDS011;13001;51.968;5.918;2023-06-05T07:44:18;37.20;;;34.63;;
22768;SDS011;13001;51.968;5.918;2023-06-05T07:46:46;39.75;;;37.35;;
22768;SDS011;13001;51.968;5.918;2023-06-05T07:49:14;15.70;;;14.70;;
22768;SDS011;13001;51.968;5.918;2023-06-05T07:51:44;13.78;;;12.85;;
22768;SDS011;13001;51.968;5.918;2023-06-05T07:54:14;15.93;;;14.53;;
22768;SDS011;13001;51.968;5.918;2023-06-05T07:56:45;14.65;;;13.70;;
22768;SDS011;13001;51.968;5.918;2023-06-05T07:59:14;16.65;;;15.45;;
22768;SDS011;13001;51.968;5.918;2023-06-05T08:01:42;18.70;;;17.42;;
22768;SDS011;13001;51.968;5.918;2023-06-05T08:04:11;15.43;;;14.38;;
22768;SDS011;13001;51.968;5.918;2023-06-05T08:06:38;15.32;;;14.13;;
22768;SDS011;13001;51.968;5.918;2023-06-05T08:09:06;19.95;;;18.65;;
22768;SDS011;13001;51.968;5.918;2023-06-05T08:11:38;22.93;;;21.33;;
22768;SDS011;13001;51.968;5.918;2023-06-05T08:14:07;23.83;;;22.15;;
22768;SDS011;13001;51.968;5.918;2023-06-05T08:16:35;23.77;;;22.17;;
22768;SDS011;13001;51.968;5.918;2023-06-05T08:19:03;18.20;;;16.80;;
22768;SDS011;13001;51.968;5.918;2023-06-05T08:21:30;17.32;;;16.23;;
22768;SDS011;13001;51.968;5.918;2023-06-05T08:23:58;15.58;;;14.43;;
22768;SDS011;13001;51.968;5.918;2023-06-05T08:26:25;16.77;;;15.33;;
22768;SDS011;13001;51.968;5.918;2023-06-05T08:28:52;14.60;;;13.70;;
22768;SDS011;13001;51.968;5.918;2023-06-05T08:31:19;15.85;;;14.40;;
22768;SDS011;13001;51.968;5.918;2023-06-05T08:33:47;15.60;;;14.40;;
22768;SDS011;13001;51.968;5.918;2023-06-05T08:36:14;17.07;;;15.77;;
22768;SDS011;13001;51.968;5.918;2023-06-05T08:38:43;18.40;;;16.87;;
22768;SDS011;13001;51.968;5.918;2023-06-05T08:41:11;26.37;;;24.67;;
22768;SDS011;13001;51.968;5.918;2023-06-05T08:43:39;25.05;;;23.45;;
22768;SDS011;13001;51.968;5.918;2023-06-05T08:46:11;24.00;;;22.50;;
22768;SDS011;13001;51.968;5.918;2023-06-05T08:48:42;24.82;;;23.15;;
22768;SDS011;13001;51.968;5.918;2023-06-05T08:51:10;23.83;;;22.27;;
22768;SDS011;13001;51.968;5.918;2023-06-05T08:53:39;24.90;;;23.12;;
22768;SDS011;13001;51.968;5.918;2023-06-05T08:56:07;25.70;;;23.70;;
22768;SDS011;13001;51.968;5.918;2023-06-05T08:58:37;24.55;;;22.80;;
22768;SDS011;13001;51.968;5.918;2023-06-05T09:01:04;24.05;;;22.27;;
22768;SDS011;13001;51.968;5.918;2023-06-05T09:03:36;25.90;;;23.98;;
22768;SDS011;13001;51.968;5.918;2023-06-05T09:06:00;24.97;;;23.37;;
22768;SDS011;13001;51.968;5.918;2023-06-05T09:08:32;20.02;;;18.62;;
22768;SDS011;13001;51.968;5.918;2023-06-05T09:13:45;23.95;;;22.17;;
22768;SDS011;13001;51.968;5.918;2023-06-05T09:16:13;23.70;;;22.30;;
22768;SDS011;13001;51.968;5.918;2023-06-05T09:18:53;23.75;;;22.30;;
22768;SDS011;13001;51.968;5.918;2023-06-05T09:21:22;20.83;;;19.37;;
22768;SDS011;13001;51.968;5.918;2023-06-05T09:23:51;18.97;;;17.57;;
22768;SDS011;13001;51.968;5.918;2023-06-05T09:26:18;20.00;;;18.77;;
22768;SDS011;13001;51.968;5.918;2023-06-05T09:28:54;22.15;;;20.65;;
22768;SDS011;13001;51.968;5.918;2023-06-05T09:31:23;22.70;;;21.25;;
22768;SDS011;13001;51.968;5.918;2023-06-05T09:33:54;30.90;;;28.63;;
22768;SDS011;13001;51.968;5.918;2023-06-05T09:36:23;31.40;;;29.20;;
22768;SDS011;13001;51.968;5.918;2023-06-05T09:38:52;28.42;;;26.73;;
22768;SDS011;13001;51.968;5.918;2023-06-05T09:41:19;32.83;;;30.72;;
22768;SDS011;13001;51.968;5.918;2023-06-05T09:43:47;27.07;;;25.00;;
22768;SDS011;13001;51.968;5.918;2023-06-05T09:46:17;28.67;;;27.05;;
22768;SDS011;13001;51.968;5.918;2023-06-05T09:48:50;21.20;;;19.62;;
22768;SDS011;13001;51.968;5.918;2023-06-05T09:51:14;28.35;;;26.37;;
22768;SDS011;13001;51.968;5.918;2023-06-05T09:53:47;21.68;;;20.17;;
22768;SDS011;13001;51.968;5.918;2023-06-05T09:56:14;22.45;;;21.05;;
22768;SDS011;13001;51.968;5.918;2023-06-05T09:58:43;21.82;;;20.35;;
22768;SDS011;13001;51.968;5.918;2023-06-05T10:01:15;28.70;;;26.73;;
22768;SDS011;13001;51.968;5.918;2023-06-05T10:03:44;27.75;;;25.55;;
22768;SDS011;13001;51.968;5.918;2023-06-05T10:06:13;22.97;;;21.37;;
22768;SDS011;13001;51.968;5.918;2023-06-05T10:08:41;19.20;;;17.77;;
22768;SDS011;13001;51.968;5.918;2023-06-05T10:11:08;16.70;;;15.30;;
22768;SDS011;13001;51.968;5.918;2023-06-05T10:13:37;15.85;;;14.75;;
22768;SDS011;13001;51.968;5.918;2023-06-05T10:16:05;19.05;;;17.75;;
22768;SDS011;13001;51.968;5.918;2023-06-05T10:18:32;19.77;;;17.77;;
22768;SDS011;13001;51.968;5.918;2023-06-05T10:21:00;18.15;;;16.95;;
22768;SDS011;13001;51.968;5.918;2023-06-05T10:23:28;24.25;;;22.60;;
22768;SDS011;13001;51.968;5.918;2023-06-05T10:25:55;44.00;;;41.30;;
22768;SDS011;13001;51.968;5.918;2023-06-05T10:28:29;140.05;;;132.12;;
22768;SDS011;13001;51.968;5.918;2023-06-05T10:33:59;51.25;;;48.23;;
22768;SDS011;13001;51.968;5.918;2023-06-05T10:38:58;164.30;;;154.33;;
22768;SDS011;13001;51.968;5.918;2023-06-05T10:41:26;190.07;;;179.12;;
22768;SDS011;13001;51.968;5.918;2023-06-05T10:43:53;191.53;;;180.52;;
22768;SDS011;13001;51.968;5.918;2023-06-05T10:46:28;166.77;;;157.12;;
22768;SDS011;13001;51.968;5.918;2023-06-05T10:49:10;172.97;;;162.33;;
22768;SDS011;13001;51.968;5.918;2023-06-05T10:51:40;157.47;;;148.20;;
22768;SDS011;13001;51.968;5.918;2023-06-05T10:54:13;143.43;;;135.05;;
22768;SDS011;13001;51.968;5.918;2023-06-05T10:56:53;150.95;;;142.13;;
22768;SDS011;13001;51.968;5.918;2023-06-05T10:59:25;161.47;;;151.65;;
22768;SDS011;13001;51.968;5.918;2023-06-05T11:15:03;151.95;;;142.57;;
22768;SDS011;13001;51.968;5.918;2023-06-05T11:17:31;142.15;;;133.65;;
22768;SDS011;13001;51.968;5.918;2023-06-05T11:19:59;140.70;;;132.47;;
22768;SDS011;13001;51.968;5.918;2023-06-05T11:22:27;139.28;;;131.22;;
22768;SDS011;13001;51.968;5.918;2023-06-05T11:27:44;152.40;;;143.70;;
22768;SDS011;13001;51.968;5.918;2023-06-05T11:30:13;148.57;;;139.97;;
22768;SDS011;13001;51.968;5.918;2023-06-05T11:32:41;135.52;;;127.55;;
22768;SDS011;13001;51.968;5.918;2023-06-05T11:35:08;138.50;;;130.63;;
22768;SDS011;13001;51.968;5.918;2023-06-05T11:37:36;147.17;;;138.77;;
22768;SDS011;13001;51.968;5.918;2023-06-05T11:40:04;145.17;;;136.77;;
22768;SDS011;13001;51.968;5.918;2023-06-05T11:42:46;145.15;;;136.70;;
22768;SDS011;13001;51.968;5.918;2023-06-05T11:45:14;142.95;;;134.65;;
22768;SDS011;13001;51.968;5.918;2023-06-05T11:47:41;149.97;;;141.37;;
22768;SDS011;13001;51.968;5.918;2023-06-05T11:50:11;152.75;;;144.25;;
22768;SDS011;13001;51.968;5.918;2023-06-05T11:52:39;149.17;;;140.77;;
22768;SDS011;13001;51.968;5.918;2023-06-05T11:55:17;146.98;;;138.72;;
22768;SDS011;13001;51.968;5.918;2023-06-05T11:57:49;129.32;;;121.80;;
22768;SDS011;13001;51.968;5.918;2023-06-05T12:00:22;132.72;;;125.15;;
22768;SDS011;13001;51.968;5.918;2023-06-05T12:02:46;130.07;;;122.67;;
22768;SDS011;13001;51.968;5.918;2023-06-05T12:05:13;135.28;;;127.50;;
22768;SDS011;13001;51.968;5.918;2023-06-05T12:07:41;134.27;;;126.50;;
22768;SDS011;13001;51.968;5.918;2023-06-05T12:10:09;126.77;;;119.43;;
22768;SDS011;13001;51.968;5.918;2023-06-05T12:12:52;138.72;;;130.50;;
22768;SDS011;13001;51.968;5.918;2023-06-05T12:15:19;139.15;;;131.10;;
22768;SDS011;13001;51.968;5.918;2023-06-05T12:17:50;168.13;;;157.55;;
22768;SDS011;13001;51.968;5.918;2023-06-05T12:20:18;163.67;;;153.43;;
22768;SDS011;13001;51.968;5.918;2023-06-05T12:22:45;199.32;;;187.05;;
22768;SDS011;13001;51.968;5.918;2023-06-05T12:25:19;159.37;;;150.05;;
22768;SDS011;13001;51.968;5.918;2023-06-05T12:27:47;175.35;;;164.22;;
22768;SDS011;13001;51.968;5.918;2023-06-05T12:30:18;172.55;;;161.97;;
22768;SDS011;13001;51.968;5.918;2023-06-05T12:32:46;192.55;;;180.87;;
22768;SDS011;13001;51.968;5.918;2023-06-05T12:35:18;201.67;;;189.30;;
22768;SDS011;13001;51.968;5.918;2023-06-05T12:37:46;202.13;;;189.57;;
22768;SDS011;13001;51.968;5.918;2023-06-05T12:40:14;256.52;;;241.50;;
22768;SDS011;13001;51.968;5.918;2023-06-05T12:42:43;252.18;;;237.32;;
22768;SDS011;13001;51.968;5.918;2023-06-05T12:45:11;235.82;;;221.80;;
22768;SDS011;13001;51.968;5.918;2023-06-05T12:47:39;269.87;;;254.15;;
22768;SDS011;13001;51.968;5.918;2023-06-05T12:50:07;191.12;;;179.97;;
22768;SDS011;13001;51.968;5.918;2023-06-05T12:52:37;188.60;;;177.70;;
22768;SDS011;13001;51.968;5.918;2023-06-05T12:55:04;193.57;;;182.25;;
22768;SDS011;13001;51.968;5.918;2023-06-05T12:57:32;208.23;;;196.03;;
22768;SDS011;13001;51.968;5.918;2023-06-05T13:00:02;283.55;;;267.32;;
22768;SDS011;13001;51.968;5.918;2023-06-05T13:02:31;241.53;;;227.35;;
22768;SDS011;13001;51.968;5.918;2023-06-05T13:05:00;226.50;;;213.30;;
22768;SDS011;13001;51.968;5.918;2023-06-05T13:07:27;241.63;;;227.33;;
22768;SDS011;13001;51.968;5.918;2023-06-05T13:09:55;233.82;;;220.17;;
22768;SDS011;13001;51.968;5.918;2023-06-05T13:12:22;228.88;;;215.55;;
22768;SDS011;13001;51.968;5.918;2023-06-05T13:14:49;228.37;;;215.12;;
22768;SDS011;13001;51.968;5.918;2023-06-05T13:17:17;220.02;;;207.30;;
22768;SDS011;13001;51.968;5.918;2023-06-05T13:19:44;210.50;;;197.97;;
22768;SDS011;13001;51.968;5.918;2023-06-05T13:22:11;200.57;;;188.77;;
22768;SDS011;13001;51.968;5.918;2023-06-05T13:24:38;222.27;;;209.52;;
22768;SDS011;13001;51.968;5.918;2023-06-05T13:27:06;217.40;;;205.05;;
22768;SDS011;13001;51.968;5.918;2023-06-05T13:29:34;207.10;;;195.40;;
22768;SDS011;13001;51.968;5.918;2023-06-05T13:32:01;218.57;;;205.95;;
22768;SDS011;13001;51.968;5.918;2023-06-05T13:34:28;221.15;;;208.55;;
22768;SDS011;13001;51.968;5.918;2023-06-05T13:36:56;212.20;;;200.10;;
22768;SDS011;13001;51.968;5.918;2023-06-05T13:39:23;208.50;;;196.68;;
22768;SDS011;13001;51.968;5.918;2023-06-05T13:41:50;197.28;;;185.90;;
22768;SDS011;13001;51.968;5.918;2023-06-05T13:44:17;160.82;;;150.97;;
22768;SDS011;13001;51.968;5.918;2023-06-05T13:46:45;175.00;;;164.90;;
22768;SDS011;13001;51.968;5.918;2023-06-05T13:49:12;178.78;;;168.25;;
22768;SDS011;13001;51.968;5.918;2023-06-05T13:51:40;175.55;;;165.45;;
22768;SDS011;13001;51.968;5.918;2023-06-05T13:54:08;163.03;;;153.50;;
22768;SDS011;13001;51.968;5.918;2023-06-05T13:56:35;148.43;;;139.03;;
22768;SDS011;13001;51.968;5.918;2023-06-05T13:59:02;151.18;;;142.47;;
22768;SDS011;13001;51.968;5.918;2023-06-05T14:01:29;147.57;;;138.95;;
22768;SDS011;13001;51.968;5.918;2023-06-05T14:03:57;178.60;;;168.07;;
22768;SDS011;13001;51.968;5.918;2023-06-05T14:06:24;172.47;;;162.57;;
22768;SDS011;13001;51.968;5.918;2023-06-05T14:08:51;164.97;;;155.40;;
22768;SDS011;13001;51.968;5.918;2023-06-05T14:11:18;155.75;;;146.57;;
22768;SDS011;13001;51.968;5.918;2023-06-05T14:13:46;149.07;;;139.95;;
22768;SDS011;13001;51.968;5.918;2023-06-05T14:16:13;130.65;;;122.95;;
22768;SDS011;13001;51.968;5.918;2023-06-05T14:18:40;135.20;;;127.32;;
22768;SDS011;13001;51.968;5.918;2023-06-05T14:21:08;137.03;;;128.23;;
22768;SDS011;13001;51.968;5.918;2023-06-05T14:23:35;156.63;;;146.67;;
22768;SDS011;13001;51.968;5.918;2023-06-05T14:26:04;114.60;;;107.90;;
22768;SDS011;13001;51.968;5.918;2023-06-05T14:28:31;147.80;;;138.10;;
22768;SDS011;13001;51.968;5.918;2023-06-05T14:30:58;118.75;;;111.70;;
22768;SDS011;13001;51.968;5.918;2023-06-05T14:33:25;155.67;;;145.82;;
22768;SDS011;13001;51.968;5.918;2023-06-05T14:35:53;126.53;;;118.93;;